sensor_id;sensor_type;location;lat;lon;timestamp;P1;durP1;ratioP1;P2;durP2;ratioP2
5718;SDS011;2884;47.734;9.244;2023-07-20T00:01:34;7.70;;;3.07;;
5718;SDS011;2884;47.734;9.244;2023-07-20T00:04:00;3.43;;;2.73;;
5718;SDS011;2884;47.734;9.244;2023-07-20T00:06:26;3.17;;;2.90;;
5718;SDS011;2884;47.734;9.244;2023-07-20T00:08:56;4.43;;;3.17;;
5718;SDS011;2884;47.734;9.244;2023-07-20T00:11:25;4.10;;;3.20;;
5718;SDS011;2884;47.734;9.244;2023-07-20T00:13:52;10.23;;;3.20;;
5718;SDS011;2884;47.734;9.244;2023-07-20T00:16:17;3.60;;;3.30;;
5718;SDS011;2884;47.734;9.244;2023-07-20T00:18:43;3.10;;;2.80;;
5718;SDS011;2884;47.734;9.244;2023-07-20T00:21:09;6.47;;;2.83;;
5718;SDS011;2884;47.734;9.244;2023-07-20T00:23:35;6.50;;;2.83;;
5718;SDS011;2884;47.734;9.244;2023-07-20T00:26:01;3.30;;;2.57;;
5718;SDS011;2884;47.734;9.244;2023-07-20T00:28:26;6.00;;;2.57;;
5718;SDS011;2884;47.734;9.244;2023-07-20T00:30:52;4.20;;;2.63;;
5718;SDS011;2884;47.734;9.244;2023-07-20T00:33:18;6.67;;;2.43;;
5718;SDS011;2884;47.734;9.244;2023-07-20T00:35:44;5.20;;;2.70;;
5718;SDS011;2884;47.734;9.244;2023-07-20T00:38:09;2.83;;;2.60;;
5718;SDS011;2884;47.734;9.244;2023-07-20T00:40:39;5.00;;;2.77;;
5718;SDS011;2884;47.734;9.244;2023-07-20T00:43:05;7.40;;;2.13;;
5718;SDS011;2884;47.734;9.244;2023-07-20T00:45:31;2.60;;;2.10;;
5718;SDS011;2884;47.734;9.244;2023-07-20T00:47:59;4.10;;;2.20;;
5718;SDS011;2884;47.734;9.244;2023-07-20T00:50:25;21.97;;;3.80;;
5718;SDS011;2884;47.734;9.244;2023-07-20T00:52:51;4.63;;;2.63;;
5718;SDS011;2884;47.734;9.244;2023-07-20T00:55:18;6.27;;;2.50;;
5718;SDS011;2884;47.734;9.244;2023-07-20T00:57:44;5.80;;;2.33;;
5718;SDS011;2884;47.734;9.244;2023-07-20T01:00:10;5.67;;;2.50;;
5718;SDS011;2884;47.734;9.244;2023-07-20T01:02:36;3.83;;;2.63;;
5718;SDS011;2884;47.734;9.244;2023-07-20T01:05:02;7.30;;;2.77;;
5718;SDS011;2884;47.734;9.244;2023-07-20T01:12:36;3.43;;;2.70;;
5718;SDS011;2884;47.734;9.244;2023-07-20T01:15:08;3.60;;;2.73;;
5718;SDS011;2884;47.734;9.244;2023-07-20T01:17:35;6.87;;;2.97;;
5718;SDS011;2884;47.734;9.244;2023-07-20T01:20:01;4.87;;;2.40;;
5718;SDS011;2884;47.734;9.244;2023-07-20T01:22:38;3.33;;;2.47;;
5718;SDS011;2884;47.734;9.244;2023-07-20T01:33:42;2.80;;;2.10;;
5718;SDS011;2884;47.734;9.244;2023-07-20T01:36:09;6.93;;;2.10;;
5718;SDS011;2884;47.734;9.244;2023-07-20T01:38:35;4.57;;;2.13;;
5718;SDS011;2884;47.734;9.244;2023-07-20T01:41:02;1.80;;;1.70;;
5718;SDS011;2884;47.734;9.244;2023-07-20T01:43:28;2.17;;;1.97;;
5718;SDS011;2884;47.734;9.244;2023-07-20T01:45:53;3.60;;;2.03;;
5718;SDS011;2884;47.734;9.244;2023-07-20T01:48:19;2.50;;;2.10;;
5718;SDS011;2884;47.734;9.244;2023-07-20T01:50:44;4.30;;;2.47;;
5718;SDS011;2884;47.734;9.244;2023-07-20T01:53:11;3.80;;;2.20;;
5718;SDS011;2884;47.734;9.244;2023-07-20T01:55:36;5.80;;;2.40;;
5718;SDS011;2884;47.734;9.244;2023-07-20T01:58:02;7.90;;;2.33;;
5718;SDS011;2884;47.734;9.244;2023-07-20T02:00:28;2.30;;;1.80;;
5718;SDS011;2884;47.734;9.244;2023-07-20T02:02:55;4.73;;;1.57;;
5718;SDS011;2884;47.734;9.244;2023-07-20T02:05:21;8.97;;;1.60;;
5718;SDS011;2884;47.734;9.244;2023-07-20T02:07:46;2.63;;;1.43;;
5718;SDS011;2884;47.734;9.244;2023-07-20T02:10:12;6.80;;;1.90;;
5718;SDS011;2884;47.734;9.244;2023-07-20T02:12:38;1.97;;;1.70;;
5718;SDS011;2884;47.734;9.244;2023-07-20T02:15:04;2.30;;;1.77;;
5718;SDS011;2884;47.734;9.244;2023-07-20T02:17:29;3.47;;;1.60;;
5718;SDS011;2884;47.734;9.244;2023-07-20T02:19:56;4.40;;;2.30;;
5718;SDS011;2884;47.734;9.244;2023-07-20T02:22:22;3.87;;;1.83;;
5718;SDS011;2884;47.734;9.244;2023-07-20T02:24:48;1.80;;;1.70;;
5718;SDS011;2884;47.734;9.244;2023-07-20T02:27:15;1.77;;;1.30;;
5718;SDS011;2884;47.734;9.244;2023-07-20T02:29:41;10.43;;;2.17;;
5718;SDS011;2884;47.734;9.244;2023-07-20T02:32:07;3.40;;;2.13;;
5718;SDS011;2884;47.734;9.244;2023-07-20T02:34:35;2.23;;;2.03;;
5718;SDS011;2884;47.734;9.244;2023-07-20T02:37:00;6.87;;;1.80;;
5718;SDS011;2884;47.734;9.244;2023-07-20T02:39:29;1.73;;;1.60;;
5718;SDS011;2884;47.734;9.244;2023-07-20T02:41:55;2.73;;;1.70;;
5718;SDS011;2884;47.734;9.244;2023-07-20T02:44:21;3.30;;;1.80;;
5718;SDS011;2884;47.734;9.244;2023-07-20T02:46:46;7.00;;;1.90;;
5718;SDS011;2884;47.734;9.244;2023-07-20T02:49:12;4.00;;;1.93;;
5718;SDS011;2884;47.734;9.244;2023-07-20T02:51:37;4.67;;;1.80;;
5718;SDS011;2884;47.734;9.244;2023-07-20T02:54:03;3.30;;;1.90;;
5718;SDS011;2884;47.734;9.244;2023-07-20T02:56:29;3.03;;;1.80;;
5718;SDS011;2884;47.734;9.244;2023-07-20T02:58:54;5.87;;;2.00;;
5718;SDS011;2884;47.734;9.244;2023-07-20T03:01:20;3.60;;;1.60;;
5718;SDS011;2884;47.734;9.244;2023-07-20T03:03:46;12.40;;;1.87;;
5718;SDS011;2884;47.734;9.244;2023-07-20T03:06:12;3.23;;;1.80;;
5718;SDS011;2884;47.734;9.244;2023-07-20T03:08:40;8.07;;;2.27;;
5718;SDS011;2884;47.734;9.244;2023-07-20T03:11:14;11.00;;;2.63;;
5718;SDS011;2884;47.734;9.244;2023-07-20T03:13:42;2.67;;;1.70;;
5718;SDS011;2884;47.734;9.244;2023-07-20T03:16:08;2.63;;;2.23;;
5718;SDS011;2884;47.734;9.244;2023-07-20T03:18:39;3.60;;;1.50;;
5718;SDS011;2884;47.734;9.244;2023-07-20T03:21:05;2.00;;;1.80;;
5718;SDS011;2884;47.734;9.244;2023-07-20T03:23:38;4.30;;;1.53;;
5718;SDS011;2884;47.734;9.244;2023-07-20T03:26:13;6.27;;;2.20;;
5718;SDS011;2884;47.734;9.244;2023-07-20T03:28:38;2.70;;;1.90;;
5718;SDS011;2884;47.734;9.244;2023-07-20T03:31:04;1.97;;;1.87;;
5718;SDS011;2884;47.734;9.244;2023-07-20T03:33:30;2.63;;;1.73;;
5718;SDS011;2884;47.734;9.244;2023-07-20T03:35:56;3.30;;;2.00;;
5718;SDS011;2884;47.734;9.244;2023-07-20T03:38:23;2.70;;;1.93;;
5718;SDS011;2884;47.734;9.244;2023-07-20T03:43:22;2.30;;;1.67;;
5718;SDS011;2884;47.734;9.244;2023-07-20T03:45:49;2.90;;;2.00;;
5718;SDS011;2884;47.734;9.244;2023-07-20T03:48:15;2.67;;;1.87;;
5718;SDS011;2884;47.734;9.244;2023-07-20T03:50:43;5.00;;;2.10;;
5718;SDS011;2884;47.734;9.244;2023-07-20T03:53:13;8.63;;;1.90;;
5718;SDS011;2884;47.734;9.244;2023-07-20T03:55:40;5.37;;;2.10;;
5718;SDS011;2884;47.734;9.244;2023-07-20T03:58:13;4.23;;;1.80;;
5718;SDS011;2884;47.734;9.244;2023-07-20T04:00:39;3.37;;;2.00;;
5718;SDS011;2884;47.734;9.244;2023-07-20T04:03:05;10.03;;;2.03;;
5718;SDS011;2884;47.734;9.244;2023-07-20T04:05:31;10.97;;;2.17;;
5718;SDS011;2884;47.734;9.244;2023-07-20T04:07:57;5.60;;;1.90;;
5718;SDS011;2884;47.734;9.244;2023-07-20T04:10:23;4.57;;;2.03;;
5718;SDS011;2884;47.734;9.244;2023-07-20T04:12:51;6.43;;;2.60;;
5718;SDS011;2884;47.734;9.244;2023-07-20T04:15:17;3.00;;;1.73;;
5718;SDS011;2884;47.734;9.244;2023-07-20T04:17:42;5.50;;;2.27;;
5718;SDS011;2884;47.734;9.244;2023-07-20T04:20:13;7.00;;;2.20;;
5718;SDS011;2884;47.734;9.244;2023-07-20T04:22:39;3.43;;;2.13;;
5718;SDS011;2884;47.734;9.244;2023-07-20T04:25:04;2.90;;;2.00;;
5718;SDS011;2884;47.734;9.244;2023-07-20T04:27:30;2.20;;;2.00;;
5718;SDS011;2884;47.734;9.244;2023-07-20T04:29:57;6.27;;;2.23;;
5718;SDS011;2884;47.734;9.244;2023-07-20T04:32:24;4.03;;;2.53;;
5718;SDS011;2884;47.734;9.244;2023-07-20T04:34:54;4.80;;;2.30;;
5718;SDS011;2884;47.734;9.244;2023-07-20T04:37:20;5.67;;;2.40;;
5718;SDS011;2884;47.734;9.244;2023-07-20T04:39:45;5.00;;;2.50;;
5718;SDS011;2884;47.734;9.244;2023-07-20T04:42:11;7.80;;;2.60;;
5718;SDS011;2884;47.734;9.244;2023-07-20T04:44:37;14.00;;;3.40;;
5718;SDS011;2884;47.734;9.244;2023-07-20T04:47:03;4.03;;;2.50;;
5718;SDS011;2884;47.734;9.244;2023-07-20T04:49:29;4.13;;;2.40;;
5718;SDS011;2884;47.734;9.244;2023-07-20T04:51:55;5.23;;;2.63;;
5718;SDS011;2884;47.734;9.244;2023-07-20T04:54:20;2.37;;;2.17;;
5718;SDS011;2884;47.734;9.244;2023-07-20T04:56:46;4.10;;;2.60;;
5718;SDS011;2884;47.734;9.244;2023-07-20T04:59:11;4.03;;;2.93;;
5718;SDS011;2884;47.734;9.244;2023-07-20T05:01:37;4.20;;;2.57;;
5718;SDS011;2884;47.734;9.244;2023-07-20T05:04:02;2.43;;;2.23;;
5718;SDS011;2884;47.734;9.244;2023-07-20T05:06:28;4.50;;;2.30;;
5718;SDS011;2884;47.734;9.244;2023-07-20T05:08:54;5.17;;;2.20;;
5718;SDS011;2884;47.734;9.244;2023-07-20T05:11:19;6.13;;;2.37;;
5718;SDS011;2884;47.734;9.244;2023-07-20T05:13:45;3.10;;;2.73;;
5718;SDS011;2884;47.734;9.244;2023-07-20T05:16:11;4.00;;;2.50;;
5718;SDS011;2884;47.734;9.244;2023-07-20T05:18:36;2.73;;;2.40;;
5718;SDS011;2884;47.734;9.244;2023-07-20T05:21:02;5.40;;;2.97;;
5718;SDS011;2884;47.734;9.244;2023-07-20T05:23:27;7.00;;;2.43;;
5718;SDS011;2884;47.734;9.244;2023-07-20T05:25:57;11.83;;;4.07;;
5718;SDS011;2884;47.734;9.244;2023-07-20T05:28:23;6.70;;;2.87;;
5718;SDS011;2884;47.734;9.244;2023-07-20T05:30:50;11.67;;;3.27;;
5718;SDS011;2884;47.734;9.244;2023-07-20T05:33:17;4.97;;;2.60;;
5718;SDS011;2884;47.734;9.244;2023-07-20T05:35:46;11.83;;;2.63;;
5718;SDS011;2884;47.734;9.244;2023-07-20T05:38:12;6.73;;;2.27;;
5718;SDS011;2884;47.734;9.244;2023-07-20T05:40:38;4.27;;;2.43;;
5718;SDS011;2884;47.734;9.244;2023-07-20T05:43:05;5.93;;;2.60;;
5718;SDS011;2884;47.734;9.244;2023-07-20T05:45:30;4.00;;;2.43;;
5718;SDS011;2884;47.734;9.244;2023-07-20T05:47:56;4.03;;;3.10;;
5718;SDS011;2884;47.734;9.244;2023-07-20T05:50:21;13.93;;;3.03;;
5718;SDS011;2884;47.734;9.244;2023-07-20T05:52:47;3.00;;;2.30;;
5718;SDS011;2884;47.734;9.244;2023-07-20T05:55:13;4.23;;;2.43;;
5718;SDS011;2884;47.734;9.244;2023-07-20T05:57:39;3.77;;;2.43;;
5718;SDS011;2884;47.734;9.244;2023-07-20T06:00:08;4.50;;;2.67;;
5718;SDS011;2884;47.734;9.244;2023-07-20T06:02:34;3.20;;;2.20;;
5718;SDS011;2884;47.734;9.244;2023-07-20T06:05:00;4.00;;;2.67;;
5718;SDS011;2884;47.734;9.244;2023-07-20T06:07:26;3.70;;;2.50;;
5718;SDS011;2884;47.734;9.244;2023-07-20T06:09:51;3.20;;;2.63;;
5718;SDS011;2884;47.734;9.244;2023-07-20T06:12:17;3.30;;;2.37;;
5718;SDS011;2884;47.734;9.244;2023-07-20T06:14:43;11.43;;;2.90;;
5718;SDS011;2884;47.734;9.244;2023-07-20T06:17:08;3.57;;;2.93;;
5718;SDS011;2884;47.734;9.244;2023-07-20T06:19:34;8.87;;;2.43;;
5718;SDS011;2884;47.734;9.244;2023-07-20T06:22:00;4.30;;;2.37;;
5718;SDS011;2884;47.734;9.244;2023-07-20T06:24:25;6.00;;;2.63;;
5718;SDS011;2884;47.734;9.244;2023-07-20T06:26:51;4.23;;;2.40;;
5718;SDS011;2884;47.734;9.244;2023-07-20T06:29:17;4.23;;;2.47;;
5718;SDS011;2884;47.734;9.244;2023-07-20T06:31:43;5.40;;;2.60;;
5718;SDS011;2884;47.734;9.244;2023-07-20T06:34:08;8.23;;;2.73;;
5718;SDS011;2884;47.734;9.244;2023-07-20T06:36:34;3.17;;;2.57;;
5718;SDS011;2884;47.734;9.244;2023-07-20T06:39:00;7.30;;;2.67;;
5718;SDS011;2884;47.734;9.244;2023-07-20T06:41:26;3.37;;;2.40;;
5718;SDS011;2884;47.734;9.244;2023-07-20T06:43:51;6.43;;;2.57;;
5718;SDS011;2884;47.734;9.244;2023-07-20T06:46:17;3.13;;;2.13;;
5718;SDS011;2884;47.734;9.244;2023-07-20T06:48:43;3.40;;;2.73;;
5718;SDS011;2884;47.734;9.244;2023-07-20T06:51:08;4.30;;;2.10;;
5718;SDS011;2884;47.734;9.244;2023-07-20T06:53:34;5.10;;;2.97;;
5718;SDS011;2884;47.734;9.244;2023-07-20T06:56:00;10.50;;;2.80;;
5718;SDS011;2884;47.734;9.244;2023-07-20T06:58:26;3.90;;;2.27;;
5718;SDS011;2884;47.734;9.244;2023-07-20T07:00:51;2.43;;;2.23;;
5718;SDS011;2884;47.734;9.244;2023-07-20T07:03:17;3.83;;;2.23;;
5718;SDS011;2884;47.734;9.244;2023-07-20T07:05:43;3.37;;;2.27;;
5718;SDS011;2884;47.734;9.244;2023-07-20T07:08:09;4.70;;;2.30;;
5718;SDS011;2884;47.734;9.244;2023-07-20T07:10:35;3.43;;;2.43;;
5718;SDS011;2884;47.734;9.244;2023-07-20T07:13:01;8.47;;;2.60;;
5718;SDS011;2884;47.734;9.244;2023-07-20T07:15:30;2.40;;;2.10;;
5718;SDS011;2884;47.734;9.244;2023-07-20T07:17:57;7.70;;;2.50;;
5718;SDS011;2884;47.734;9.244;2023-07-20T07:20:24;8.57;;;2.83;;
5718;SDS011;2884;47.734;9.244;2023-07-20T07:22:50;4.47;;;3.20;;
5718;SDS011;2884;47.734;9.244;2023-07-20T07:25:16;3.13;;;2.40;;
5718;SDS011;2884;47.734;9.244;2023-07-20T07:27:41;2.50;;;2.30;;
5718;SDS011;2884;47.734;9.244;2023-07-20T07:30:07;5.90;;;2.50;;
5718;SDS011;2884;47.734;9.244;2023-07-20T07:32:33;4.87;;;2.00;;
5718;SDS011;2884;47.734;9.244;2023-07-20T07:34:58;4.80;;;2.43;;
5718;SDS011;2884;47.734;9.244;2023-07-20T07:37:25;10.10;;;2.50;;
5718;SDS011;2884;47.734;9.244;2023-07-20T07:39:51;6.93;;;2.50;;
5718;SDS011;2884;47.734;9.244;2023-07-20T07:42:16;2.97;;;2.10;;
5718;SDS011;2884;47.734;9.244;2023-07-20T07:44:43;8.53;;;2.47;;
5718;SDS011;2884;47.734;9.244;2023-07-20T07:47:10;4.70;;;2.50;;
5718;SDS011;2884;47.734;9.244;2023-07-20T07:49:35;3.97;;;2.67;;
5718;SDS011;2884;47.734;9.244;2023-07-20T07:52:01;5.10;;;2.37;;
5718;SDS011;2884;47.734;9.244;2023-07-20T07:54:27;10.50;;;2.63;;
5718;SDS011;2884;47.734;9.244;2023-07-20T07:56:53;5.70;;;2.80;;
5718;SDS011;2884;47.734;9.244;2023-07-20T07:59:19;4.23;;;2.50;;
5718;SDS011;2884;47.734;9.244;2023-07-20T08:01:45;3.03;;;2.30;;
5718;SDS011;2884;47.734;9.244;2023-07-20T08:04:10;4.33;;;2.20;;
5718;SDS011;2884;47.734;9.244;2023-07-20T08:06:36;4.57;;;2.07;;
5718;SDS011;2884;47.734;9.244;2023-07-20T08:09:01;7.60;;;2.57;;
5718;SDS011;2884;47.734;9.244;2023-07-20T08:11:27;6.77;;;2.30;;
5718;SDS011;2884;47.734;9.244;2023-07-20T08:13:55;5.00;;;2.40;;
5718;SDS011;2884;47.734;9.244;2023-07-20T08:16:22;10.07;;;2.40;;
5718;SDS011;2884;47.734;9.244;2023-07-20T08:18:47;4.00;;;2.30;;
5718;SDS011;2884;47.734;9.244;2023-07-20T08:21:13;1.80;;;1.70;;
5718;SDS011;2884;47.734;9.244;2023-07-20T08:23:38;8.00;;;2.87;;
5718;SDS011;2884;47.734;9.244;2023-07-20T08:26:04;5.10;;;2.40;;
5718;SDS011;2884;47.734;9.244;2023-07-20T08:28:29;4.33;;;2.60;;
5718;SDS011;2884;47.734;9.244;2023-07-20T08:30:55;3.40;;;2.67;;
5718;SDS011;2884;47.734;9.244;2023-07-20T08:33:21;5.67;;;2.30;;
5718;SDS011;2884;47.734;9.244;2023-07-20T08:35:46;3.13;;;2.20;;
5718;SDS011;2884;47.734;9.244;2023-07-20T08:38:12;3.40;;;2.33;;
5718;SDS011;2884;47.734;9.244;2023-07-20T08:40:43;3.23;;;2.30;;
5718;SDS011;2884;47.734;9.244;2023-07-20T08:43:10;9.83;;;3.33;;
5718;SDS011;2884;47.734;9.244;2023-07-20T08:45:38;5.63;;;2.07;;
5718;SDS011;2884;47.734;9.244;2023-07-20T08:48:05;5.77;;;2.50;;
5718;SDS011;2884;47.734;9.244;2023-07-20T08:50:31;3.13;;;1.83;;
5718;SDS011;2884;47.734;9.244;2023-07-20T08:52:57;6.73;;;2.07;;
5718;SDS011;2884;47.734;9.244;2023-07-20T08:55:24;5.07;;;1.87;;
5718;SDS011;2884;47.734;9.244;2023-07-20T08:57:52;8.93;;;1.80;;
5718;SDS011;2884;47.734;9.244;2023-07-20T09:00:19;4.07;;;2.03;;
5718;SDS011;2884;47.734;9.244;2023-07-20T09:02:46;5.60;;;1.90;;
5718;SDS011;2884;47.734;9.244;2023-07-20T09:05:13;5.67;;;2.33;;
5718;SDS011;2884;47.734;9.244;2023-07-20T09:07:39;3.37;;;1.50;;
5718;SDS011;2884;47.734;9.244;2023-07-20T09:10:06;6.27;;;2.50;;
5718;SDS011;2884;47.734;9.244;2023-07-20T09:12:34;3.20;;;2.23;;
5718;SDS011;2884;47.734;9.244;2023-07-20T09:15:01;5.03;;;2.00;;
5718;SDS011;2884;47.734;9.244;2023-07-20T09:17:26;2.20;;;2.10;;
5718;SDS011;2884;47.734;9.244;2023-07-20T09:19:52;11.67;;;2.57;;
5718;SDS011;2884;47.734;9.244;2023-07-20T09:22:18;3.30;;;2.03;;
5718;SDS011;2884;47.734;9.244;2023-07-20T09:24:43;4.57;;;2.40;;
5718;SDS011;2884;47.734;9.244;2023-07-20T09:27:09;6.33;;;2.40;;
5718;SDS011;2884;47.734;9.244;2023-07-20T09:29:49;2.73;;;2.17;;
5718;SDS011;2884;47.734;9.244;2023-07-20T09:32:17;2.43;;;2.23;;
5718;SDS011;2884;47.734;9.244;2023-07-20T09:34:44;3.50;;;1.90;;
5718;SDS011;2884;47.734;9.244;2023-07-20T09:37:10;3.23;;;1.90;;
5718;SDS011;2884;47.734;9.244;2023-07-20T09:39:42;5.80;;;2.20;;
5718;SDS011;2884;47.734;9.244;2023-07-20T09:42:10;3.63;;;1.87;;
5718;SDS011;2884;47.734;9.244;2023-07-20T09:44:37;3.13;;;2.13;;
5718;SDS011;2884;47.734;9.244;2023-07-20T09:47:03;5.10;;;1.90;;
5718;SDS011;2884;47.734;9.244;2023-07-20T09:49:29;2.13;;;1.47;;
5718;SDS011;2884;47.734;9.244;2023-07-20T09:51:55;7.20;;;2.03;;
5718;SDS011;2884;47.734;9.244;2023-07-20T09:54:22;4.50;;;1.90;;
5718;SDS011;2884;47.734;9.244;2023-07-20T09:56:50;3.63;;;2.40;;
5718;SDS011;2884;47.734;9.244;2023-07-20T09:59:16;4.30;;;2.10;;
5718;SDS011;2884;47.734;9.244;2023-07-20T10:01:41;3.07;;;1.90;;
5718;SDS011;2884;47.734;9.244;2023-07-20T10:04:09;2.47;;;1.90;;
5718;SDS011;2884;47.734;9.244;2023-07-20T10:06:37;5.23;;;2.70;;
5718;SDS011;2884;47.734;9.244;2023-07-20T10:09:07;4.33;;;2.33;;
5718;SDS011;2884;47.734;9.244;2023-07-20T10:11:34;4.90;;;2.13;;
5718;SDS011;2884;47.734;9.244;2023-07-20T10:14:03;3.10;;;1.53;;
5718;SDS011;2884;47.734;9.244;2023-07-20T10:16:31;2.70;;;1.83;;
5718;SDS011;2884;47.734;9.244;2023-07-20T10:19:07;5.50;;;2.10;;
5718;SDS011;2884;47.734;9.244;2023-07-20T10:21:37;2.73;;;1.70;;
5718;SDS011;2884;47.734;9.244;2023-07-20T10:24:06;3.17;;;1.80;;
5718;SDS011;2884;47.734;9.244;2023-07-20T10:26:32;6.30;;;2.23;;
5718;SDS011;2884;47.734;9.244;2023-07-20T10:28:58;2.50;;;1.53;;
5718;SDS011;2884;47.734;9.244;2023-07-20T10:31:24;2.93;;;1.87;;
5718;SDS011;2884;47.734;9.244;2023-07-20T10:33:51;5.40;;;2.17;;
5718;SDS011;2884;47.734;9.244;2023-07-20T10:36:24;4.67;;;2.13;;
5718;SDS011;2884;47.734;9.244;2023-07-20T10:38:55;3.00;;;1.70;;
5718;SDS011;2884;47.734;9.244;2023-07-20T10:44:04;4.10;;;2.00;;
5718;SDS011;2884;47.734;9.244;2023-07-20T10:49:04;4.10;;;2.13;;
5718;SDS011;2884;47.734;9.244;2023-07-20T10:51:31;3.60;;;1.93;;
5718;SDS011;2884;47.734;9.244;2023-07-20T10:56:42;2.53;;;1.77;;
5718;SDS011;2884;47.734;9.244;2023-07-20T10:59:19;5.17;;;2.23;;
5718;SDS011;2884;47.734;9.244;2023-07-20T11:01:45;5.57;;;2.20;;
5718;SDS011;2884;47.734;9.244;2023-07-20T11:04:12;2.63;;;1.83;;
5718;SDS011;2884;47.734;9.244;2023-07-20T11:06:38;3.23;;;2.00;;
5718;SDS011;2884;47.734;9.244;2023-07-20T11:09:14;4.20;;;2.20;;
5718;SDS011;2884;47.734;9.244;2023-07-20T11:11:40;6.30;;;2.30;;
5718;SDS011;2884;47.734;9.244;2023-07-20T11:14:10;2.83;;;1.80;;
5718;SDS011;2884;47.734;9.244;2023-07-20T11:16:46;3.43;;;1.90;;
5718;SDS011;2884;47.734;9.244;2023-07-20T11:19:13;2.00;;;1.80;;
5718;SDS011;2884;47.734;9.244;2023-07-20T11:21:41;4.70;;;1.80;;
5718;SDS011;2884;47.734;9.244;2023-07-20T11:24:08;2.73;;;1.93;;
5718;SDS011;2884;47.734;9.244;2023-07-20T11:29:15;5.00;;;2.00;;
5718;SDS011;2884;47.734;9.244;2023-07-20T11:31:42;2.20;;;2.00;;
5718;SDS011;2884;47.734;9.244;2023-07-20T11:34:18;2.73;;;1.63;;
5718;SDS011;2884;47.734;9.244;2023-07-20T11:36:46;4.87;;;1.57;;
5718;SDS011;2884;47.734;9.244;2023-07-20T11:39:14;3.37;;;1.90;;
5718;SDS011;2884;47.734;9.244;2023-07-20T11:41:45;3.97;;;2.00;;
5718;SDS011;2884;47.734;9.244;2023-07-20T11:44:12;4.33;;;1.80;;
5718;SDS011;2884;47.734;9.244;2023-07-20T11:46:41;3.67;;;2.00;;
5718;SDS011;2884;47.734;9.244;2023-07-20T11:49:08;4.50;;;2.40;;
5718;SDS011;2884;47.734;9.244;2023-07-20T11:51:34;5.20;;;1.97;;
5718;SDS011;2884;47.734;9.244;2023-07-20T11:54:00;5.30;;;2.30;;
5718;SDS011;2884;47.734;9.244;2023-07-20T11:56:26;2.63;;;1.40;;
5718;SDS011;2884;47.734;9.244;2023-07-20T11:58:55;2.97;;;1.90;;
5718;SDS011;2884;47.734;9.244;2023-07-20T12:01:24;4.93;;;2.00;;
5718;SDS011;2884;47.734;9.244;2023-07-20T12:03:51;5.47;;;2.10;;
5718;SDS011;2884;47.734;9.244;2023-07-20T12:06:17;6.43;;;1.90;;
5718;SDS011;2884;47.734;9.244;2023-07-20T12:08:43;3.10;;;2.17;;
5718;SDS011;2884;47.734;9.244;2023-07-20T12:11:09;2.43;;;1.70;;
5718;SDS011;2884;47.734;9.244;2023-07-20T12:13:35;3.27;;;1.67;;
5718;SDS011;2884;47.734;9.244;2023-07-20T12:16:12;2.23;;;1.90;;
5718;SDS011;2884;47.734;9.244;2023-07-20T12:18:40;4.73;;;1.80;;
5718;SDS011;2884;47.734;9.244;2023-07-20T12:21:07;2.73;;;1.73;;
5718;SDS011;2884;47.734;9.244;2023-07-20T12:23:37;3.10;;;1.63;;
5718;SDS011;2884;47.734;9.244;2023-07-20T12:26:08;2.73;;;1.87;;
5718;SDS011;2884;47.734;9.244;2023-07-20T12:28:41;1.80;;;1.70;;
5718;SDS011;2884;47.734;9.244;2023-07-20T12:31:07;9.10;;;1.40;;
5718;SDS011;2884;47.734;9.244;2023-07-20T12:33:34;4.47;;;1.50;;
5718;SDS011;2884;47.734;9.244;2023-07-20T12:36:00;3.93;;;2.03;;
5718;SDS011;2884;47.734;9.244;2023-07-20T12:38:26;3.37;;;1.73;;
5718;SDS011;2884;47.734;9.244;2023-07-20T12:40:53;2.23;;;2.03;;
5718;SDS011;2884;47.734;9.244;2023-07-20T12:43:20;3.77;;;1.90;;
5718;SDS011;2884;47.734;9.244;2023-07-20T12:45:46;2.03;;;1.70;;
5718;SDS011;2884;47.734;9.244;2023-07-20T12:48:12;5.50;;;1.83;;
5718;SDS011;2884;47.734;9.244;2023-07-20T12:50:37;4.83;;;1.87;;
5718;SDS011;2884;47.734;9.244;2023-07-20T12:53:03;4.80;;;1.97;;
5718;SDS011;2884;47.734;9.244;2023-07-20T12:55:29;1.70;;;1.50;;
5718;SDS011;2884;47.734;9.244;2023-07-20T12:57:54;3.73;;;1.60;;
5718;SDS011;2884;47.734;9.244;2023-07-20T13:00:20;2.37;;;1.90;;
5718;SDS011;2884;47.734;9.244;2023-07-20T13:02:48;4.43;;;1.77;;
5718;SDS011;2884;47.734;9.244;2023-07-20T13:05:14;3.80;;;1.50;;
5718;SDS011;2884;47.734;9.244;2023-07-20T13:07:40;3.73;;;1.60;;
5718;SDS011;2884;47.734;9.244;2023-07-20T13:10:07;7.53;;;1.80;;
5718;SDS011;2884;47.734;9.244;2023-07-20T13:12:34;2.67;;;1.33;;
5718;SDS011;2884;47.734;9.244;2023-07-20T13:15:03;2.40;;;1.73;;
5718;SDS011;2884;47.734;9.244;2023-07-20T13:17:36;2.80;;;1.50;;
5718;SDS011;2884;47.734;9.244;2023-07-20T13:20:06;3.37;;;2.13;;
5718;SDS011;2884;47.734;9.244;2023-07-20T13:22:35;4.53;;;2.00;;
5718;SDS011;2884;47.734;9.244;2023-07-20T13:25:00;4.80;;;1.87;;
5718;SDS011;2884;47.734;9.244;2023-07-20T13:27:26;3.63;;;1.60;;
5718;SDS011;2884;47.734;9.244;2023-07-20T13:29:52;3.73;;;1.60;;
5718;SDS011;2884;47.734;9.244;2023-07-20T13:32:18;3.60;;;1.97;;
5718;SDS011;2884;47.734;9.244;2023-07-20T13:34:44;9.10;;;2.13;;
5718;SDS011;2884;47.734;9.244;2023-07-20T13:37:10;2.20;;;1.60;;
5718;SDS011;2884;47.734;9.244;2023-07-20T13:39:36;3.23;;;1.70;;
5718;SDS011;2884;47.734;9.244;2023-07-20T13:42:02;3.27;;;2.13;;
5718;SDS011;2884;47.734;9.244;2023-07-20T13:44:30;2.43;;;1.70;;
5718;SDS011;2884;47.734;9.244;2023-07-20T13:46:56;1.93;;;1.83;;
5718;SDS011;2884;47.734;9.244;2023-07-20T13:49:22;2.03;;;1.13;;
5718;SDS011;2884;47.734;9.244;2023-07-20T13:51:48;1.43;;;1.30;;
5718;SDS011;2884;47.734;9.244;2023-07-20T13:54:13;4.67;;;1.53;;
5718;SDS011;2884;47.734;9.244;2023-07-20T13:56:39;3.10;;;1.80;;
5718;SDS011;2884;47.734;9.244;2023-07-20T13:59:05;3.57;;;1.47;;
5718;SDS011;2884;47.734;9.244;2023-07-20T14:01:31;7.33;;;2.00;;
5718;SDS011;2884;47.734;9.244;2023-07-20T14:03:58;3.77;;;1.90;;
5718;SDS011;2884;47.734;9.244;2023-07-20T14:06:24;3.20;;;2.00;;
5718;SDS011;2884;47.734;9.244;2023-07-20T14:08:49;3.67;;;1.60;;
5718;SDS011;2884;47.734;9.244;2023-07-20T14:11:15;2.27;;;1.60;;
5718;SDS011;2884;47.734;9.244;2023-07-20T14:13:41;4.60;;;1.83;;
5718;SDS011;2884;47.734;9.244;2023-07-20T14:16:07;4.10;;;1.70;;
5718;SDS011;2884;47.734;9.244;2023-07-20T14:18:33;1.57;;;1.47;;
5718;SDS011;2884;47.734;9.244;2023-07-20T14:20:59;1.77;;;1.63;;
5718;SDS011;2884;47.734;9.244;2023-07-20T14:23:25;2.73;;;1.40;;
5718;SDS011;2884;47.734;9.244;2023-07-20T14:25:51;1.60;;;1.50;;
5718;SDS011;2884;47.734;9.244;2023-07-20T14:28:17;3.50;;;2.00;;
5718;SDS011;2884;47.734;9.244;2023-07-20T14:30:42;3.37;;;1.93;;
5718;SDS011;2884;47.734;9.244;2023-07-20T14:33:08;1.77;;;1.67;;
5718;SDS011;2884;47.734;9.244;2023-07-20T14:35:34;3.00;;;1.70;;
5718;SDS011;2884;47.734;9.244;2023-07-20T14:38:00;1.67;;;1.50;;
5718;SDS011;2884;47.734;9.244;2023-07-20T14:40:26;5.40;;;1.57;;
5718;SDS011;2884;47.734;9.244;2023-07-20T14:42:52;5.97;;;1.90;;
5718;SDS011;2884;47.734;9.244;2023-07-20T14:45:17;6.43;;;2.30;;
5718;SDS011;2884;47.734;9.244;2023-07-20T14:47:43;2.30;;;1.67;;
5718;SDS011;2884;47.734;9.244;2023-07-20T14:50:10;1.83;;;1.60;;
5718;SDS011;2884;47.734;9.244;2023-07-20T14:52:36;4.87;;;2.10;;
5718;SDS011;2884;47.734;9.244;2023-07-20T14:55:02;3.97;;;1.87;;
5718;SDS011;2884;47.734;9.244;2023-07-20T14:57:27;2.00;;;1.10;;
5718;SDS011;2884;47.734;9.244;2023-07-20T14:59:53;2.90;;;1.80;;
5718;SDS011;2884;47.734;9.244;2023-07-20T15:02:19;5.37;;;1.83;;
5718;SDS011;2884;47.734;9.244;2023-07-20T15:04:48;3.83;;;1.60;;
5718;SDS011;2884;47.734;9.244;2023-07-20T15:07:15;1.33;;;1.23;;
5718;SDS011;2884;47.734;9.244;2023-07-20T15:09:41;2.60;;;1.90;;
5718;SDS011;2884;47.734;9.244;2023-07-20T15:12:07;8.63;;;2.20;;
5718;SDS011;2884;47.734;9.244;2023-07-20T15:14:34;2.73;;;1.43;;
5718;SDS011;2884;47.734;9.244;2023-07-20T15:16:59;3.83;;;1.80;;
5718;SDS011;2884;47.734;9.244;2023-07-20T15:19:25;6.90;;;1.93;;
5718;SDS011;2884;47.734;9.244;2023-07-20T15:21:50;2.50;;;1.73;;
5718;SDS011;2884;47.734;9.244;2023-07-20T15:24:16;3.60;;;1.30;;
5718;SDS011;2884;47.734;9.244;2023-07-20T15:26:42;2.10;;;1.57;;
5718;SDS011;2884;47.734;9.244;2023-07-20T15:29:08;1.97;;;1.60;;
5718;SDS011;2884;47.734;9.244;2023-07-20T15:31:34;3.90;;;1.43;;
5718;SDS011;2884;47.734;9.244;2023-07-20T15:34:01;3.57;;;1.47;;
5718;SDS011;2884;47.734;9.244;2023-07-20T15:36:27;2.27;;;1.60;;
5718;SDS011;2884;47.734;9.244;2023-07-20T15:38:53;1.70;;;1.60;;